sensor_id;sensor_type;location;lat;lon;timestamp;P1;durP1;ratioP1;P2;durP2;ratioP2
8058;SDS011;75058;42.668;23.396;2024-03-02T00:01:21;37.05;;;17.05;;
8058;SDS011;75058;42.668;23.396;2024-03-02T00:03:49;33.85;;;16.52;;
8058;SDS011;75058;42.668;23.396;2024-03-02T00:06:19;34.55;;;15.27;;
8058;SDS011;75058;42.668;23.396;2024-03-02T00:08:48;32.08;;;15.52;;
8058;SDS011;75058;42.668;23.396;2024-03-02T00:11:16;25.40;;;13.05;;
8058;SDS011;75058;42.668;23.396;2024-03-02T00:13:45;39.25;;;15.68;;
8058;SDS011;75058;42.668;23.396;2024-03-02T00:16:15;27.48;;;12.85;;
8058;SDS011;75058;42.668;23.396;2024-03-02T00:18:44;40.55;;;16.75;;
8058;SDS011;75058;42.668;23.396;2024-03-02T00:21:12;33.20;;;15.80;;
8058;SDS011;75058;42.668;23.396;2024-03-02T00:23:42;35.95;;;13.98;;
8058;SDS011;75058;42.668;23.396;2024-03-02T00:26:11;22.95;;;9.95;;
8058;SDS011;75058;42.668;23.396;2024-03-02T00:28:40;28.73;;;13.35;;
8058;SDS011;75058;42.668;23.396;2024-03-02T00:31:10;34.38;;;16.13;;
8058;SDS011;75058;42.668;23.396;2024-03-02T00:33:42;30.08;;;14.65;;
8058;SDS011;75058;42.668;23.396;2024-03-02T00:36:12;26.67;;;12.73;;
8058;SDS011;75058;42.668;23.396;2024-03-02T00:38:46;39.63;;;15.88;;
8058;SDS011;75058;42.668;23.396;2024-03-02T00:41:15;36.13;;;17.33;;
8058;SDS011;75058;42.668;23.396;2024-03-02T00:43:53;34.30;;;17.38;;
8058;SDS011;75058;42.668;23.396;2024-03-02T00:46:26;36.85;;;16.90;;
8058;SDS011;75058;42.668;23.396;2024-03-02T00:48:57;39.67;;;18.52;;
8058;SDS011;75058;42.668;23.396;2024-03-02T00:51:27;24.67;;;11.10;;
8058;SDS011;75058;42.668;23.396;2024-03-02T00:53:58;40.78;;;18.95;;
8058;SDS011;75058;42.668;23.396;2024-03-02T00:56:27;29.73;;;14.35;;
8058;SDS011;75058;42.668;23.396;2024-03-02T00:58:55;38.92;;;17.30;;
8058;SDS011;75058;42.668;23.396;2024-03-02T01:01:23;29.50;;;12.80;;
8058;SDS011;75058;42.668;23.396;2024-03-02T01:03:51;31.75;;;13.52;;
8058;SDS011;75058;42.668;23.396;2024-03-02T01:06:21;35.03;;;17.23;;
8058;SDS011;75058;42.668;23.396;2024-03-02T01:08:50;40.22;;;17.35;;
8058;SDS011;75058;42.668;23.396;2024-03-02T01:11:19;41.63;;;18.40;;
8058;SDS011;75058;42.668;23.396;2024-03-02T01:13:47;42.15;;;18.30;;
8058;SDS011;75058;42.668;23.396;2024-03-02T01:16:16;39.33;;;17.17;;
8058;SDS011;75058;42.668;23.396;2024-03-02T01:18:44;24.85;;;11.32;;
8058;SDS011;75058;42.668;23.396;2024-03-02T01:21:12;36.15;;;16.20;;
8058;SDS011;75058;42.668;23.396;2024-03-02T01:23:42;36.92;;;17.90;;
8058;SDS011;75058;42.668;23.396;2024-03-02T01:26:10;42.55;;;19.63;;
8058;SDS011;75058;42.668;23.396;2024-03-02T01:28:38;37.47;;;16.23;;
8058;SDS011;75058;42.668;23.396;2024-03-02T01:31:06;46.65;;;19.70;;
8058;SDS011;75058;42.668;23.396;2024-03-02T01:33:34;29.88;;;10.75;;
8058;SDS011;75058;42.668;23.396;2024-03-02T01:36:02;36.08;;;15.88;;
8058;SDS011;75058;42.668;23.396;2024-03-02T01:38:30;34.72;;;14.00;;
8058;SDS011;75058;42.668;23.396;2024-03-02T01:41:00;40.40;;;18.33;;
8058;SDS011;75058;42.668;23.396;2024-03-02T01:43:28;45.72;;;18.85;;
8058;SDS011;75058;42.668;23.396;2024-03-02T01:45:56;37.20;;;16.17;;
8058;SDS011;75058;42.668;23.396;2024-03-02T01:48:25;42.58;;;20.85;;
8058;SDS011;75058;42.668;23.396;2024-03-02T01:50:53;31.48;;;12.60;;
8058;SDS011;75058;42.668;23.396;2024-03-02T01:53:21;39.53;;;18.83;;
8058;SDS011;75058;42.668;23.396;2024-03-02T01:55:49;48.35;;;20.35;;
8058;SDS011;75058;42.668;23.396;2024-03-02T01:58:18;47.78;;;20.02;;
8058;SDS011;75058;42.668;23.396;2024-03-02T02:00:46;48.05;;;20.45;;
8058;SDS011;75058;42.668;23.396;2024-03-02T02:03:14;46.35;;;19.58;;
8058;SDS011;75058;42.668;23.396;2024-03-02T02:05:42;31.88;;;15.57;;
8058;SDS011;75058;42.668;23.396;2024-03-02T02:08:10;29.35;;;15.40;;
8058;SDS011;75058;42.668;23.396;2024-03-02T02:10:38;39.85;;;18.27;;
8058;SDS011;75058;42.668;23.396;2024-03-02T02:13:07;36.90;;;18.00;;
8058;SDS011;75058;42.668;23.396;2024-03-02T02:15:36;45.33;;;19.30;;
8058;SDS011;75058;42.668;23.396;2024-03-02T02:18:04;44.63;;;19.77;;
8058;SDS011;75058;42.668;23.396;2024-03-02T02:20:32;35.30;;;17.23;;
8058;SDS011;75058;42.668;23.396;2024-03-02T02:23:02;35.33;;;15.60;;
8058;SDS011;75058;42.668;23.396;2024-03-02T02:25:32;40.03;;;16.95;;
8058;SDS011;75058;42.668;23.396;2024-03-02T02:28:00;50.08;;;21.30;;
8058;SDS011;75058;42.668;23.396;2024-03-02T02:30:29;43.42;;;17.88;;
8058;SDS011;75058;42.668;23.396;2024-03-02T02:32:58;29.92;;;12.15;;
8058;SDS011;75058;42.668;23.396;2024-03-02T02:35:26;44.88;;;21.40;;
8058;SDS011;75058;42.668;23.396;2024-03-02T02:37:56;36.22;;;15.82;;
8058;SDS011;75058;42.668;23.396;2024-03-02T02:40:26;41.08;;;17.23;;
8058;SDS011;75058;42.668;23.396;2024-03-02T02:42:56;48.60;;;20.77;;
8058;SDS011;75058;42.668;23.396;2024-03-02T02:45:25;44.65;;;19.02;;
8058;SDS011;75058;42.668;23.396;2024-03-02T02:47:53;43.92;;;20.60;;
8058;SDS011;75058;42.668;23.396;2024-03-02T02:50:21;30.98;;;11.35;;
8058;SDS011;75058;42.668;23.396;2024-03-02T02:52:49;42.17;;;18.15;;
8058;SDS011;75058;42.668;23.396;2024-03-02T02:55:17;41.22;;;18.92;;
8058;SDS011;75058;42.668;23.396;2024-03-02T02:57:47;29.98;;;11.38;;
8058;SDS011;75058;42.668;23.396;2024-03-02T03:00:15;49.08;;;19.80;;
8058;SDS011;75058;42.668;23.396;2024-03-02T03:02:46;45.80;;;20.00;;
8058;SDS011;75058;42.668;23.396;2024-03-02T03:05:17;47.17;;;20.65;;
8058;SDS011;75058;42.668;23.396;2024-03-02T03:07:45;37.15;;;17.88;;
8058;SDS011;75058;42.668;23.396;2024-03-02T03:10:16;54.47;;;20.90;;
8058;SDS011;75058;42.668;23.396;2024-03-02T03:12:45;43.63;;;19.13;;
8058;SDS011;75058;42.668;23.396;2024-03-02T03:15:14;45.10;;;20.50;;
8058;SDS011;75058;42.668;23.396;2024-03-02T03:17:43;49.05;;;18.83;;
8058;SDS011;75058;42.668;23.396;2024-03-02T03:20:13;45.33;;;20.83;;
8058;SDS011;75058;42.668;23.396;2024-03-02T03:22:42;41.05;;;15.75;;
8058;SDS011;75058;42.668;23.396;2024-03-02T03:25:10;44.90;;;18.80;;
8058;SDS011;75058;42.668;23.396;2024-03-02T03:27:38;43.97;;;19.60;;
8058;SDS011;75058;42.668;23.396;2024-03-02T03:30:10;41.78;;;17.27;;
8058;SDS011;75058;42.668;23.396;2024-03-02T03:32:38;49.72;;;20.50;;
8058;SDS011;75058;42.668;23.396;2024-03-02T03:35:07;50.33;;;20.27;;
8058;SDS011;75058;42.668;23.396;2024-03-02T03:37:35;50.88;;;18.60;;
8058;SDS011;75058;42.668;23.396;2024-03-02T03:40:04;46.00;;;20.58;;
8058;SDS011;75058;42.668;23.396;2024-03-02T03:42:37;40.58;;;16.63;;
8058;SDS011;75058;42.668;23.396;2024-03-02T03:45:06;37.72;;;17.83;;
8058;SDS011;75058;42.668;23.396;2024-03-02T03:47:35;48.17;;;21.23;;
8058;SDS011;75058;42.668;23.396;2024-03-02T03:50:03;46.97;;;19.73;;
8058;SDS011;75058;42.668;23.396;2024-03-02T03:52:34;42.25;;;19.15;;
8058;SDS011;75058;42.668;23.396;2024-03-02T03:55:06;51.45;;;21.10;;
8058;SDS011;75058;42.668;23.396;2024-03-02T03:57:35;36.60;;;16.52;;
8058;SDS011;75058;42.668;23.396;2024-03-02T04:00:03;38.35;;;16.60;;
8058;SDS011;75058;42.668;23.396;2024-03-02T04:02:32;49.85;;;18.52;;
8058;SDS011;75058;42.668;23.396;2024-03-02T04:05:01;43.53;;;18.40;;
8058;SDS011;75058;42.668;23.396;2024-03-02T04:07:31;39.05;;;18.65;;
8058;SDS011;75058;42.668;23.396;2024-03-02T04:09:59;42.00;;;15.93;;
8058;SDS011;75058;42.668;23.396;2024-03-02T04:12:27;42.75;;;15.88;;
8058;SDS011;75058;42.668;23.396;2024-03-02T04:14:55;30.95;;;13.88;;
8058;SDS011;75058;42.668;23.396;2024-03-02T04:17:23;36.80;;;17.45;;
8058;SDS011;75058;42.668;23.396;2024-03-02T04:19:51;46.80;;;20.27;;
8058;SDS011;75058;42.668;23.396;2024-03-02T04:22:20;38.38;;;15.48;;
8058;SDS011;75058;42.668;23.396;2024-03-02T04:24:51;45.80;;;19.77;;
8058;SDS011;75058;42.668;23.396;2024-03-02T04:27:19;43.92;;;17.13;;
8058;SDS011;75058;42.668;23.396;2024-03-02T04:29:47;32.45;;;15.50;;
8058;SDS011;75058;42.668;23.396;2024-03-02T04:32:15;42.83;;;19.55;;
8058;SDS011;75058;42.668;23.396;2024-03-02T04:34:43;36.17;;;15.95;;
8058;SDS011;75058;42.668;23.396;2024-03-02T04:37:11;41.83;;;18.80;;
8058;SDS011;75058;42.668;23.396;2024-03-02T04:39:42;41.05;;;17.52;;
8058;SDS011;75058;42.668;23.396;2024-03-02T04:42:10;39.78;;;16.20;;
8058;SDS011;75058;42.668;23.396;2024-03-02T04:44:38;45.72;;;17.88;;
8058;SDS011;75058;42.668;23.396;2024-03-02T04:47:06;43.35;;;18.75;;
8058;SDS011;75058;42.668;23.396;2024-03-02T04:49:34;45.92;;;19.75;;
8058;SDS011;75058;42.668;23.396;2024-03-02T04:52:02;51.53;;;21.13;;
8058;SDS011;75058;42.668;23.396;2024-03-02T04:54:31;49.72;;;20.73;;
8058;SDS011;75058;42.668;23.396;2024-03-02T04:57:00;47.38;;;19.58;;
8058;SDS011;75058;42.668;23.396;2024-03-02T04:59:28;55.42;;;22.67;;
8058;SDS011;75058;42.668;23.396;2024-03-02T05:01:57;50.78;;;19.45;;
8058;SDS011;75058;42.668;23.396;2024-03-02T05:04:25;50.50;;;19.95;;
8058;SDS011;75058;42.668;23.396;2024-03-02T05:06:53;53.80;;;21.23;;
8058;SDS011;75058;42.668;23.396;2024-03-02T05:09:23;71.20;;;24.50;;
8058;SDS011;75058;42.668;23.396;2024-03-02T05:11:51;57.50;;;21.98;;
8058;SDS011;75058;42.668;23.396;2024-03-02T05:14:45;59.53;;;21.40;;
8058;SDS011;75058;42.668;23.396;2024-03-02T05:17:13;55.42;;;21.65;;
8058;SDS011;75058;42.668;23.396;2024-03-02T05:19:41;59.88;;;22.60;;
8058;SDS011;75058;42.668;23.396;2024-03-02T05:22:09;59.05;;;23.33;;
8058;SDS011;75058;42.668;23.396;2024-03-02T05:24:37;54.15;;;21.23;;
8058;SDS011;75058;42.668;23.396;2024-03-02T05:27:05;55.20;;;22.60;;
8058;SDS011;75058;42.668;23.396;2024-03-02T05:29:33;60.63;;;21.95;;
8058;SDS011;75058;42.668;23.396;2024-03-02T05:32:03;55.80;;;21.17;;
8058;SDS011;75058;42.668;23.396;2024-03-02T05:34:31;54.92;;;21.77;;
8058;SDS011;75058;42.668;23.396;2024-03-02T05:37:01;58.65;;;21.65;;
8058;SDS011;75058;42.668;23.396;2024-03-02T05:39:29;72.97;;;27.55;;
8058;SDS011;75058;42.668;23.396;2024-03-02T05:41:57;73.45;;;25.35;;
8058;SDS011;75058;42.668;23.396;2024-03-02T05:44:25;57.22;;;21.52;;
8058;SDS011;75058;42.668;23.396;2024-03-02T05:46:53;59.97;;;24.35;;
8058;SDS011;75058;42.668;23.396;2024-03-02T05:49:22;74.60;;;26.60;;
8058;SDS011;75058;42.668;23.396;2024-03-02T05:51:50;63.80;;;23.45;;
8058;SDS011;75058;42.668;23.396;2024-03-02T05:54:18;66.93;;;24.02;;
8058;SDS011;75058;42.668;23.396;2024-03-02T05:56:46;66.93;;;23.83;;
8058;SDS011;75058;42.668;23.396;2024-03-02T05:59:14;64.93;;;25.42;;
8058;SDS011;75058;42.668;23.396;2024-03-02T06:01:43;64.57;;;24.17;;
8058;SDS011;75058;42.668;23.396;2024-03-02T06:04:12;58.22;;;22.55;;
8058;SDS011;75058;42.668;23.396;2024-03-02T06:06:42;56.47;;;19.77;;
8058;SDS011;75058;42.668;23.396;2024-03-02T06:09:10;60.03;;;23.50;;
8058;SDS011;75058;42.668;23.396;2024-03-02T06:11:39;64.40;;;25.35;;
8058;SDS011;75058;42.668;23.396;2024-03-02T06:14:08;62.85;;;20.75;;
8058;SDS011;75058;42.668;23.396;2024-03-02T06:16:36;59.28;;;21.67;;
8058;SDS011;75058;42.668;23.396;2024-03-02T06:19:04;78.82;;;28.05;;
8058;SDS011;75058;42.668;23.396;2024-03-02T06:21:33;77.38;;;27.02;;
8058;SDS011;75058;42.668;23.396;2024-03-02T06:24:02;83.45;;;27.13;;
8058;SDS011;75058;42.668;23.396;2024-03-02T06:26:31;52.78;;;18.63;;
8058;SDS011;75058;42.668;23.396;2024-03-02T06:28:59;63.45;;;21.17;;
8058;SDS011;75058;42.668;23.396;2024-03-02T06:31:28;63.35;;;22.60;;
8058;SDS011;75058;42.668;23.396;2024-03-02T06:33:56;75.70;;;25.20;;
8058;SDS011;75058;42.668;23.396;2024-03-02T06:36:24;56.97;;;20.67;;
8058;SDS011;75058;42.668;23.396;2024-03-02T06:38:52;80.55;;;26.23;;
8058;SDS011;75058;42.668;23.396;2024-03-02T06:41:21;64.72;;;22.52;;
8058;SDS011;75058;42.668;23.396;2024-03-02T06:43:49;73.75;;;24.70;;
8058;SDS011;75058;42.668;23.396;2024-03-02T06:46:25;60.97;;;18.98;;
8058;SDS011;75058;42.668;23.396;2024-03-02T06:48:53;52.58;;;16.65;;
8058;SDS011;75058;42.668;23.396;2024-03-02T06:51:21;55.60;;;17.15;;
8058;SDS011;75058;42.668;23.396;2024-03-02T06:53:49;48.35;;;15.20;;
8058;SDS011;75058;42.668;23.396;2024-03-02T06:56:17;68.13;;;23.92;;
8058;SDS011;75058;42.668;23.396;2024-03-02T06:58:47;69.78;;;23.33;;
8058;SDS011;75058;42.668;23.396;2024-03-02T07:01:14;55.72;;;19.10;;
8058;SDS011;75058;42.668;23.396;2024-03-02T07:03:42;54.47;;;18.10;;
8058;SDS011;75058;42.668;23.396;2024-03-02T07:06:10;54.72;;;20.08;;
8058;SDS011;75058;42.668;23.396;2024-03-02T07:08:38;65.93;;;25.42;;
8058;SDS011;75058;42.668;23.396;2024-03-02T07:11:06;81.55;;;27.48;;
8058;SDS011;75058;42.668;23.396;2024-03-02T07:13:34;69.75;;;24.27;;
8058;SDS011;75058;42.668;23.396;2024-03-02T07:16:04;75.43;;;24.83;;
8058;SDS011;75058;42.668;23.396;2024-03-02T07:18:54;69.57;;;24.77;;
8058;SDS011;75058;42.668;23.396;2024-03-02T07:21:23;68.38;;;22.98;;
8058;SDS011;75058;42.668;23.396;2024-03-02T07:23:51;66.88;;;23.58;;
8058;SDS011;75058;42.668;23.396;2024-03-02T07:26:19;65.70;;;22.98;;
8058;SDS011;75058;42.668;23.396;2024-03-02T07:28:50;48.08;;;18.67;;
8058;SDS011;75058;42.668;23.396;2024-03-02T07:31:20;55.28;;;20.33;;
8058;SDS011;75058;42.668;23.396;2024-03-02T07:33:48;57.97;;;21.60;;
8058;SDS011;75058;42.668;23.396;2024-03-02T07:36:16;76.65;;;25.80;;
8058;SDS011;75058;42.668;23.396;2024-03-02T07:38:45;61.47;;;23.42;;
8058;SDS011;75058;42.668;23.396;2024-03-02T07:41:17;60.67;;;23.00;;
8058;SDS011;75058;42.668;23.396;2024-03-02T07:43:45;67.97;;;23.23;;
8058;SDS011;75058;42.668;23.396;2024-03-02T07:46:13;61.40;;;22.02;;
8058;SDS011;75058;42.668;23.396;2024-03-02T07:48:43;62.47;;;22.70;;
8058;SDS011;75058;42.668;23.396;2024-03-02T07:51:11;55.30;;;19.50;;
8058;SDS011;75058;42.668;23.396;2024-03-02T07:53:40;53.15;;;20.05;;
8058;SDS011;75058;42.668;23.396;2024-03-02T07:56:08;58.45;;;19.98;;
8058;SDS011;75058;42.668;23.396;2024-03-02T07:58:36;51.95;;;19.65;;
8058;SDS011;75058;42.668;23.396;2024-03-02T08:01:04;54.10;;;21.38;;
8058;SDS011;75058;42.668;23.396;2024-03-02T08:03:32;58.80;;;20.73;;
8058;SDS011;75058;42.668;23.396;2024-03-02T08:06:02;55.67;;;21.80;;
8058;SDS011;75058;42.668;23.396;2024-03-02T08:08:31;61.50;;;25.38;;
8058;SDS011;75058;42.668;23.396;2024-03-02T08:10:59;100.18;;;36.28;;
8058;SDS011;75058;42.668;23.396;2024-03-02T08:13:27;71.55;;;28.70;;
8058;SDS011;75058;42.668;23.396;2024-03-02T08:15:55;60.70;;;24.77;;
8058;SDS011;75058;42.668;23.396;2024-03-02T08:18:22;67.65;;;26.00;;
8058;SDS011;75058;42.668;23.396;2024-03-02T08:20:50;96.57;;;38.10;;
8058;SDS011;75058;42.668;23.396;2024-03-02T08:23:24;90.72;;;36.30;;
8058;SDS011;75058;42.668;23.396;2024-03-02T08:25:52;59.88;;;24.38;;
8058;SDS011;75058;42.668;23.396;2024-03-02T08:28:20;57.38;;;24.20;;
8058;SDS011;75058;42.668;23.396;2024-03-02T08:30:47;70.20;;;25.23;;
8058;SDS011;75058;42.668;23.396;2024-03-02T08:33:15;46.90;;;20.15;;
8058;SDS011;75058;42.668;23.396;2024-03-02T08:35:44;53.85;;;19.50;;
8058;SDS011;75058;42.668;23.396;2024-03-02T08:38:12;67.32;;;25.95;;
8058;SDS011;75058;42.668;23.396;2024-03-02T08:40:42;61.20;;;24.00;;
8058;SDS011;75058;42.668;23.396;2024-03-02T08:43:10;60.13;;;23.58;;
8058;SDS011;75058;42.668;23.396;2024-03-02T08:45:38;60.20;;;23.40;;
8058;SDS011;75058;42.668;23.396;2024-03-02T08:48:08;55.25;;;21.90;;
8058;SDS011;75058;42.668;23.396;2024-03-02T08:50:36;58.28;;;23.10;;
8058;SDS011;75058;42.668;23.396;2024-03-02T08:53:04;63.45;;;23.92;;
8058;SDS011;75058;42.668;23.396;2024-03-02T08:55:32;65.18;;;23.55;;
8058;SDS011;75058;42.668;23.396;2024-03-02T08:58:01;66.05;;;23.98;;
8058;SDS011;75058;42.668;23.396;2024-03-02T09:00:30;58.28;;;22.35;;
8058;SDS011;75058;42.668;23.396;2024-03-02T09:02:58;62.35;;;21.70;;
8058;SDS011;75058;42.668;23.396;2024-03-02T09:05:26;53.92;;;19.23;;
8058;SDS011;75058;42.668;23.396;2024-03-02T09:07:54;54.45;;;20.27;;
8058;SDS011;75058;42.668;23.396;2024-03-02T09:10:22;52.92;;;21.73;;
8058;SDS011;75058;42.668;23.396;2024-03-02T09:12:54;49.80;;;21.67;;
8058;SDS011;75058;42.668;23.396;2024-03-02T09:15:23;47.97;;;20.02;;
8058;SDS011;75058;42.668;23.396;2024-03-02T09:17:51;53.38;;;21.00;;
8058;SDS011;75058;42.668;23.396;2024-03-02T09:20:19;47.75;;;20.50;;
8058;SDS011;75058;42.668;23.396;2024-03-02T09:22:47;47.83;;;18.73;;
8058;SDS011;75058;42.668;23.396;2024-03-02T09:25:15;58.10;;;20.70;;
8058;SDS011;75058;42.668;23.396;2024-03-02T09:27:43;53.28;;;21.10;;
8058;SDS011;75058;42.668;23.396;2024-03-02T09:30:11;56.80;;;21.63;;
8058;SDS011;75058;42.668;23.396;2024-03-02T09:32:42;55.95;;;21.95;;
8058;SDS011;75058;42.668;23.396;2024-03-02T09:35:12;51.03;;;19.77;;
8058;SDS011;75058;42.668;23.396;2024-03-02T09:37:40;57.35;;;21.98;;
8058;SDS011;75058;42.668;23.396;2024-03-02T09:40:08;40.90;;;15.77;;
8058;SDS011;75058;42.668;23.396;2024-03-02T09:42:37;53.50;;;19.92;;
8058;SDS011;75058;42.668;23.396;2024-03-02T09:45:06;46.10;;;18.30;;
8058;SDS011;75058;42.668;23.396;2024-03-02T09:47:35;43.85;;;17.23;;
8058;SDS011;75058;42.668;23.396;2024-03-02T09:50:05;38.45;;;15.65;;
8058;SDS011;75058;42.668;23.396;2024-03-02T09:52:34;45.40;;;17.52;;
8058;SDS011;75058;42.668;23.396;2024-03-02T09:55:05;54.67;;;20.63;;
8058;SDS011;75058;42.668;23.396;2024-03-02T09:57:33;58.33;;;20.35;;
8058;SDS011;75058;42.668;23.396;2024-03-02T10:00:04;51.45;;;21.67;;
8058;SDS011;75058;42.668;23.396;2024-03-02T10:02:32;47.60;;;19.08;;
8058;SDS011;75058;42.668;23.396;2024-03-02T10:05:00;46.92;;;19.50;;
8058;SDS011;75058;42.668;23.396;2024-03-02T10:07:32;37.90;;;16.58;;
8058;SDS011;75058;42.668;23.396;2024-03-02T10:10:00;41.15;;;16.67;;
8058;SDS011;75058;42.668;23.396;2024-03-02T10:12:40;44.20;;;15.70;;
8058;SDS011;75058;42.668;23.396;2024-03-02T10:15:08;39.42;;;15.43;;
8058;SDS011;75058;42.668;23.396;2024-03-02T10:17:37;38.63;;;15.77;;
8058;SDS011;75058;42.668;23.396;2024-03-02T10:22:52;41.92;;;16.92;;
8058;SDS011;75058;42.668;23.396;2024-03-02T10:25:30;44.50;;;17.75;;
8058;SDS011;75058;42.668;23.396;2024-03-02T10:28:16;36.38;;;16.52;;
8058;SDS011;75058;42.668;23.396;2024-03-02T10:30:46;43.22;;;16.23;;
8058;SDS011;75058;42.668;23.396;2024-03-02T10:33:17;22.65;;;10.68;;
8058;SDS011;75058;42.668;23.396;2024-03-02T10:35:45;34.88;;;16.48;;
8058;SDS011;75058;42.668;23.396;2024-03-02T10:38:18;40.35;;;16.45;;
8058;SDS011;75058;42.668;23.396;2024-03-02T10:40:47;33.42;;;13.80;;
8058;SDS011;75058;42.668;23.396;2024-03-02T10:43:15;27.48;;;11.88;;
8058;SDS011;75058;42.668;23.396;2024-03-02T10:45:45;23.63;;;10.32;;
8058;SDS011;75058;42.668;23.396;2024-03-02T10:48:15;35.15;;;14.30;;
8058;SDS011;75058;42.668;23.396;2024-03-02T10:50:43;36.70;;;15.32;;
8058;SDS011;75058;42.668;23.396;2024-03-02T10:53:11;39.75;;;14.48;;
8058;SDS011;75058;42.668;23.396;2024-03-02T10:55:44;32.17;;;13.57;;
8058;SDS011;75058;42.668;23.396;2024-03-02T10:58:15;27.58;;;13.25;;
8058;SDS011;75058;42.668;23.396;2024-03-02T11:00:45;37.63;;;15.43;;
8058;SDS011;75058;42.668;23.396;2024-03-02T11:03:13;34.65;;;13.60;;
8058;SDS011;75058;42.668;23.396;2024-03-02T11:05:43;33.92;;;15.52;;
8058;SDS011;75058;42.668;23.396;2024-03-02T11:08:16;30.35;;;14.07;;
8058;SDS011;75058;42.668;23.396;2024-03-02T11:10:50;25.67;;;12.18;;
8058;SDS011;75058;42.668;23.396;2024-03-02T11:13:20;24.25;;;11.82;;
8058;SDS011;75058;42.668;23.396;2024-03-02T11:15:51;23.13;;;9.88;;
8058;SDS011;75058;42.668;23.396;2024-03-02T11:18:24;32.20;;;13.25;;
8058;SDS011;75058;42.668;23.396;2024-03-02T11:20:53;30.52;;;13.40;;
8058;SDS011;75058;42.668;23.396;2024-03-02T11:23:23;29.10;;;12.02;;
8058;SDS011;75058;42.668;23.396;2024-03-02T11:28:47;24.80;;;10.95;;
8058;SDS011;75058;42.668;23.396;2024-03-02T11:31:16;26.20;;;10.73;;
8058;SDS011;75058;42.668;23.396;2024-03-02T11:33:44;30.05;;;13.57;;
8058;SDS011;75058;42.668;23.396;2024-03-02T11:36:12;29.92;;;14.23;;
8058;SDS011;75058;42.668;23.396;2024-03-02T11:38:40;21.95;;;10.82;;
8058;SDS011;75058;42.668;23.396;2024-03-02T11:41:12;35.78;;;14.27;;
8058;SDS011;75058;42.668;23.396;2024-03-02T11:43:43;27.13;;;10.27;;
8058;SDS011;75058;42.668;23.396;2024-03-02T11:46:12;27.63;;;11.60;;
8058;SDS011;75058;42.668;23.396;2024-03-02T11:48:40;26.05;;;12.20;;
8058;SDS011;75058;42.668;23.396;2024-03-02T11:51:08;25.40;;;11.48;;
8058;SDS011;75058;42.668;23.396;2024-03-02T11:53:38;22.13;;;9.30;;
8058;SDS011;75058;42.668;23.396;2024-03-02T11:56:06;23.23;;;9.55;;
8058;SDS011;75058;42.668;23.396;2024-03-02T11:58:38;17.95;;;8.82;;
8058;SDS011;75058;42.668;23.396;2024-03-02T12:01:10;21.90;;;9.73;;
8058;SDS011;75058;42.668;23.396;2024-03-02T12:03:40;19.98;;;9.60;;
8058;SDS011;75058;42.668;23.396;2024-03-02T12:06:08;23.02;;;10.00;;
8058;SDS011;75058;42.668;23.396;2024-03-02T12:08:36;24.88;;;10.63;;
8058;SDS011;75058;42.668;23.396;2024-03-02T12:11:04;26.85;;;11.00;;
8058;SDS011;75058;42.668;23.396;2024-03-02T12:13:33;32.78;;;12.70;;
8058;SDS011;75058;42.668;23.396;2024-03-02T12:16:01;20.73;;;9.63;;
8058;SDS011;75058;42.668;23.396;2024-03-02T12:18:31;22.75;;;10.65;;
8058;SDS011;75058;42.668;23.396;2024-03-02T12:20:59;23.52;;;10.80;;
8058;SDS011;75058;42.668;23.396;2024-03-02T12:23:29;19.63;;;9.23;;
8058;SDS011;75058;42.668;23.396;2024-03-02T12:25:57;23.40;;;10.95;;
8058;SDS011;75058;42.668;23.396;2024-03-02T12:28:26;19.35;;;9.30;;
8058;SDS011;75058;42.668;23.396;2024-03-02T12:30:55;22.60;;;10.40;;
8058;SDS011;75058;42.668;23.396;2024-03-02T12:33:24;25.75;;;11.05;;
8058;SDS011;75058;42.668;23.396;2024-03-02T12:35:55;18.77;;;9.88;;
8058;SDS011;75058;42.668;23.396;2024-03-02T12:38:25;22.50;;;10.30;;
8058;SDS011;75058;42.668;23.396;2024-03-02T12:40:53;21.90;;;9.35;;
8058;SDS011;75058;42.668;23.396;2024-03-02T12:43:21;20.25;;;8.55;;
8058;SDS011;75058;42.668;23.396;2024-03-02T12:45:50;20.98;;;8.73;;
8058;SDS011;75058;42.668;23.396;2024-03-02T12:48:18;17.52;;;8.60;;
8058;SDS011;75058;42.668;23.396;2024-03-02T12:50:46;11.50;;;4.88;;
8058;SDS011;75058;42.668;23.396;2024-03-02T12:53:16;22.17;;;10.07;;
8058;SDS011;75058;42.668;23.396;2024-03-02T12:55:44;20.63;;;6.35;;
8058;SDS011;75058;42.668;23.396;2024-03-02T12:58:16;19.75;;;9.40;;
8058;SDS011;75058;42.668;23.396;2024-03-02T13:00:45;17.35;;;8.35;;
8058;SDS011;75058;42.668;23.396;2024-03-02T13:03:13;18.92;;;8.60;;
8058;SDS011;75058;42.668;23.396;2024-03-02T13:05:42;20.98;;;9.65;;
8058;SDS011;75058;42.668;23.396;2024-03-02T13:08:11;21.58;;;10.90;;
8058;SDS011;75058;42.668;23.396;2024-03-02T13:10:40;21.45;;;9.65;;
8058;SDS011;75058;42.668;23.396;2024-03-02T13:13:08;20.48;;;9.60;;
8058;SDS011;75058;42.668;23.396;2024-03-02T13:15:37;18.58;;;8.57;;
8058;SDS011;75058;42.668;23.396;2024-03-02T13:18:07;17.73;;;9.57;;
8058;SDS011;75058;42.668;23.396;2024-03-02T13:20:36;17.65;;;8.63;;
8058;SDS011;75058;42.668;23.396;2024-03-02T13:23:05;15.73;;;8.05;;
8058;SDS011;75058;42.668;23.396;2024-03-02T13:25:33;12.65;;;6.93;;
8058;SDS011;75058;42.668;23.396;2024-03-02T13:28:03;14.75;;;7.40;;
8058;SDS011;75058;42.668;23.396;2024-03-02T13:30:31;14.55;;;7.28;;
8058;SDS011;75058;42.668;23.396;2024-03-02T13:33:00;13.70;;;7.07;;
8058;SDS011;75058;42.668;23.396;2024-03-02T13:35:28;14.68;;;7.32;;
8058;SDS011;75058;42.668;23.396;2024-03-02T13:37:55;14.40;;;7.63;;
8058;SDS011;75058;42.668;23.396;2024-03-02T13:40:23;15.55;;;8.27;;
8058;SDS011;75058;42.668;23.396;2024-03-02T13:42:51;15.13;;;7.28;;
8058;SDS011;75058;42.668;23.396;2024-03-02T13:45:22;17.23;;;7.97;;
8058;SDS011;75058;42.668;23.396;2024-03-02T13:47:50;15.02;;;8.43;;
8058;SDS011;75058;42.668;23.396;2024-03-02T13:50:18;16.08;;;8.90;;
8058;SDS011;75058;42.668;23.396;2024-03-02T13:52:46;18.60;;;8.93;;
8058;SDS011;75058;42.668;23.396;2024-03-02T13:55:14;19.02;;;8.68;;
8058;SDS011;75058;42.668;23.396;2024-03-02T13:57:43;20.92;;;9.02;;
8058;SDS011;75058;42.668;23.396;2024-03-02T14:00:11;19.80;;;8.63;;
8058;SDS011;75058;42.668;23.396;2024-03-02T14:02:42;19.08;;;8.65;;
8058;SDS011;75058;42.668;23.396;2024-03-02T14:05:10;23.27;;;11.15;;
8058;SDS011;75058;42.668;23.396;2024-03-02T14:07:38;22.67;;;10.07;;
8058;SDS011;75058;42.668;23.396;2024-03-02T14:10:06;22.08;;;10.60;;
8058;SDS011;75058;42.668;23.396;2024-03-02T14:12:35;19.52;;;10.02;;
8058;SDS011;75058;42.668;23.396;2024-03-02T14:15:04;18.17;;;8.73;;
8058;SDS011;75058;42.668;23.396;2024-03-02T14:17:32;20.13;;;10.23;;
8058;SDS011;75058;42.668;23.396;2024-03-02T14:20:03;18.65;;;9.27;;
8058;SDS011;75058;42.668;23.396;2024-03-02T14:22:32;18.42;;;8.63;;
8058;SDS011;75058;42.668;23.396;2024-03-02T14:25:00;22.25;;;10.57;;
8058;SDS011;75058;42.668;23.396;2024-03-02T14:27:29;23.20;;;11.77;;
8058;SDS011;75058;42.668;23.396;2024-03-02T14:30:17;21.20;;;10.23;;
8058;SDS011;75058;42.668;23.396;2024-03-02T14:32:44;23.35;;;10.65;;
8058;SDS011;75058;42.668;23.396;2024-03-02T14:35:14;22.75;;;12.07;;
8058;SDS011;75058;42.668;23.396;2024-03-02T14:37:42;24.45;;;11.45;;
8058;SDS011;75058;42.668;23.396;2024-03-02T14:40:10;24.42;;;11.73;;